Time;durP1;ratioP1;P1;durP2;ratioP2;P2;SDS_P1;SDS_P2;PMS_P1;PMS_P2;Temp;Humidity;BMP_temperature;BMP_pressure;BME280_temperature;BME280_humidity;BME280_pressure;Samples;Min_cycle;Max_cycle;Signal;HPM_P1;HPM_P2
2021/11/10 00:00:27;;;;;;;;;;;;;;;21.42;55.55;101364.25;2076271;28;772;-57
2021/11/10 00:01:27;;;;;;;;;;;;;;;21.40;55.02;101355.31;2076320;28;1056;-57
2021/11/10 00:02:27;;;;;;;;;;;;;;;21.40;56.25;101355.31;2076274;28;986;-58
2021/11/10 00:03:27;;;;;;;;;;;;;;;21.39;55.97;101357.13;2076240;28;671;-58
2021/11/10 00:04:28;;;;;;;;;;;;;;;21.40;55.47;101358.88;2076041;28;859;-57
2021/11/10 00:05:28;;;;;;;;;;;;;;;21.41;55.22;101354.41;2076220;28;966;-58
2021/11/10 00:06:28;;;;;;;;;;;;;;;21.40;55.73;101355.31;2076209;28;982;-58
2021/11/10 00:07:28;;;;;;;;;;;;;;;21.39;55.76;101357.13;2076091;28;841;-58
2021/11/10 00:08:28;;;;;;;;;;;;;;;21.38;56.07;101355.34;2075779;28;753;-58
2021/11/10 00:09:29;;;;;;;;;;;;;;;21.38;55.49;101352.66;2075681;28;780;-58
2021/11/10 00:10:29;;;;;;;;;;;;;;;21.37;55.35;101355.41;2076154;28;863;-57
2021/11/10 00:11:29;;;;;;;;;;;;;;;21.36;55.50;101365.28;2076095;28;974;-58
2021/11/10 00:12:29;;;;;;;;;;;;;;;21.34;56.22;101350.97;2076135;28;804;-57
2021/11/10 00:13:29;;;;;;;;;;;;;;;21.32;56.29;101353.72;2076009;28;1037;-58
2021/11/10 00:14:29;;;;;;;;;;;;;;;21.34;56.05;101361.75;2076156;28;1052;-57
2021/11/10 00:15:30;;;;;;;;;;;;;;;21.31;56.14;101359.16;2076140;28;776;-58
2021/11/10 00:16:30;;;;;;;;;;;;;;;21.31;55.81;101359.16;2076187;28;781;-58
2021/11/10 00:17:30;;;;;;;;;;;;;;;21.32;55.90;101366.31;2076093;28;1914;-58
2021/11/10 00:18:30;;;;;;;;;;;;;;;21.30;56.61;101365.47;2075470;28;1025;-57
2021/11/10 00:19:30;;;;;;;;;;;;;;;21.30;56.04;101370.84;2075526;28;973;-58
2021/11/10 00:20:31;;;;;;;;;;;;;;;21.30;55.81;101374.44;2075928;28;925;-58
2021/11/10 00:21:31;;;;;;;;;;;;;;;21.28;56.44;101370.00;2075992;28;993;-58
2021/11/10 00:22:31;;;;;;;;;;;;;;;21.27;55.78;101373.63;2076123;28;1033;-58
2021/11/10 00:23:32;;;;;;;;;;;;;;;21.29;55.25;101372.69;2075899;28;1056;-58
2021/11/10 00:24:32;;;;;;;;;;;;;;;21.28;56.36;101375.41;2075988;28;985;-57
2021/11/10 00:25:32;;;;;;;;;;;;;;;21.28;56.16;101373.59;2076108;28;1001;-58
2021/11/10 00:26:32;;;;;;;;;;;;;;;21.27;55.62;101373.63;2076074;28;913;-57
2021/11/10 00:27:33;;;;;;;;;;;;;;;21.27;55.61;101371.84;2076054;28;978;-58
2021/11/10 00:28:33;;;;;;;;;;;;;;;21.26;56.31;101374.56;2076117;28;827;-57
2021/11/10 00:29:33;;;;;;;;;;;;;;;21.25;56.82;101364.72;2075763;28;867;-57
2021/11/10 00:30:34;;;;;;;;;;;;;;;21.25;56.13;101370.09;2076132;28;822;-58
2021/11/10 00:31:34;;;;;;;;;;;;;;;21.23;56.49;101369.25;2076078;28;977;-57
2021/11/10 00:32:34;;;;;;;;;;;;;;;21.23;56.02;101372.84;2076057;28;783;-57
2021/11/10 00:33:34;;;;;;;;;;;;;;;21.20;56.80;101364.84;2076000;28;998;-58
2021/11/10 00:34:35;;;;;;;;;;;;;;;21.23;56.55;101363.88;2076041;28;1166;-58
2021/11/10 00:35:35;;;;;;;;;;;;;;;21.23;55.97;101363.88;2075904;28;780;-57
2021/11/10 00:36:35;;;;;;;;;;;;;;;;;;2075976;28;879;-58
2021/11/10 00:37:35;;;;;;;;;;;;;;;21.19;56.47;101357.69;2075809;28;1886;-58
2021/11/10 00:38:36;;;;;;;;;;;;;;;21.22;56.75;101356.72;2067887;28;1344;-57
2021/11/10 00:39:36;;;;;;;;;;;;;;;21.18;56.85;101346.06;2067848;28;887;-58
2021/11/10 00:40:37;;;;;;;;;;;;;;;21.18;56.47;101346.06;2067671;28;974;-58
2021/11/10 00:41:37;;;;;;;;;;;;;;;21.17;56.44;101349.66;2067866;28;788;-57
2021/11/10 00:42:38;;;;;;;;;;;;;;;21.19;56.62;101344.22;2067876;28;986;-58
2021/11/10 00:43:38;;;;;;;;;;;;;;;21.18;55.86;101351.44;2067822;28;903;-57
2021/11/10 00:44:38;;;;;;;;;;;;;;;21.16;57.30;101353.28;2067879;28;841;-57
2021/11/10 00:45:38;;;;;;;;;;;;;;;21.15;56.75;101338.06;2067685;28;1338;-57
2021/11/10 00:46:38;;;;;;;;;;;;;;;21.16;56.40;101337.13;2067211;28;971;-57
2021/11/10 00:47:38;;;;;;;;;;;;;;;21.16;55.92;101342.50;2067171;28;993;-58
2021/11/10 00:48:39;;;;;;;;;;;;;;;21.13;56.96;101350.69;2067760;28;1001;-58
2021/11/10 00:49:39;;;;;;;;;;;;;;;21.14;57.17;101349.75;2067764;28;812;-57
2021/11/10 00:50:39;;;;;;;;;;;;;;;21.14;56.96;101359.63;2067559;28;906;-57
2021/11/10 00:51:39;;;;;;;;;;;;;;;21.11;56.49;101340.84;2067678;28;779;-57
2021/11/10 00:52:40;;;;;;;;;;;;;;;21.15;57.18;101359.59;2067810;28;807;-57
2021/11/10 00:53:40;;;;;;;;;;;;;;;21.15;56.69;101361.41;2067699;28;985;-58
2021/11/10 00:54:40;;;;;;;;;;;;;;;21.16;56.85;101358.69;2067769;28;843;-58
2021/11/10 00:55:41;;;;;;;;;;;;;;;21.14;56.43;101356.94;2067665;28;1045;-57
2021/11/10 00:56:41;;;;;;;;;;;;;;;21.14;56.72;101355.13;2067243;28;1906;-58
2021/11/10 00:57:42;;;;;;;;;;;;;;;21.13;56.19;101348.00;2067649;28;855;-57
2021/11/10 00:58:42;;;;;;;;;;;;;;;21.12;56.90;101346.22;2067759;28;827;-58
2021/11/10 00:59:42;;;;;;;;;;;;;;;21.12;56.94;101346.22;2067370;28;919;-58
2021/11/10 01:00:42;;;;;;;;;;;;;;;21.15;56.96;101345.22;2067792;28;982;-58
2021/11/10 01:01:43;;;;;;;;;;;;;;;21.14;56.56;101349.75;2067441;28;1016;-57
2021/11/10 01:02:43;;;;;;;;;;;;;;;21.13;56.35;101350.69;2067715;28;966;-58
2021/11/10 01:03:43;;;;;;;;;;;;;;;21.14;56.94;101343.47;2067562;28;974;-57
2021/11/10 01:04:43;;;;;;;;;;;;;;;21.11;56.42;101349.84;2067550;28;875;-58
2021/11/10 01:05:44;;;;;;;;;;;;;;;21.11;56.49;101351.63;2067599;28;787;-57
2021/11/10 01:06:44;;;;;;;;;;;;;;;21.14;56.33;101354.25;2067679;28;839;-58
2021/11/10 01:07:44;;;;;;;;;;;;;;;21.12;56.21;101343.53;2067323;28;878;-58
2021/11/10 01:08:44;;;;;;;;;;;;;;;21.10;56.61;101342.69;2067598;28;1455;-58
2021/11/10 01:09:47;;;;;;;;;;;;;;;21.10;57.13;101341.78;2067635;28;826;-57
2021/11/10 01:10:48;;;;;;;;;;;;;;;21.11;56.79;101335.47;2067605;28;1181;-58
2021/11/10 01:11:48;;;;;;;;;;;;;;;21.11;56.99;101341.75;2067663;28;1000;-57
2021/11/10 01:12:49;;;;;;;;;;;;;;;21.10;56.60;101342.69;2067577;28;994;-58
2021/11/10 01:13:49;;;;;;;;;;;;;;;21.09;56.89;101343.59;2067673;28;890;-57
2021/11/10 01:14:49;;;;;;;;;;;;;;;21.10;56.46;101347.16;2067637;28;783;-58
2021/11/10 01:15:50;;;;;;;;;;;;;;;21.09;57.15;101343.59;2066640;28;1632;-57
2021/11/10 01:16:50;;;;;;;;;;;;;;;21.07;57.62;101348.16;2066879;28;1898;-57
2021/11/10 01:17:50;;;;;;;;;;;;;;;21.10;56.14;101341.78;2067612;28;772;-57
2021/11/10 01:18:51;;;;;;;;;;;;;;;21.12;56.26;101340.84;2067597;28;803;-57
2021/11/10 01:19:51;;;;;;;;;;;;;;;21.11;56.21;101343.53;2067570;28;883;-57
2021/11/10 01:20:51;;;;;;;;;;;;;;;21.09;56.32;101351.69;2067484;28;838;-57
2021/11/10 01:21:51;;;;;;;;;;;;;;;21.09;56.36;101349.00;2067523;28;1053;-57
2021/11/10 01:22:51;;;;;;;;;;;;;;;21.08;56.57;101338.25;2067498;28;1028;-58
2021/11/10 01:23:52;;;;;;;;;;;;;;;21.07;57.11;101339.16;2067491;28;1017;-58
2021/11/10 01:24:52;;;;;;;;;;;;;;;21.07;56.48;101337.38;2067498;28;1056;-57
2021/11/10 01:25:52;;;;;;;;;;;;;;;21.06;57.07;101341.00;2067492;28;860;-58
2021/11/10 01:26:52;;;;;;;;;;;;;;;21.08;56.27;101336.44;2067198;28;811;-58
2021/11/10 01:27:53;;;;;;;;;;;;;;;21.07;56.62;101337.38;2067533;28;1391;-57
2021/11/10 01:28:53;;;;;;;;;;;;;;;21.05;56.67;101338.31;2067466;28;815;-58
2021/11/10 01:29:53;;;;;;;;;;;;;;;21.06;56.25;101330.22;2067427;28;853;-57
2021/11/10 01:30:53;;;;;;;;;;;;;;;21.07;56.42;101333.78;2067482;28;982;-58
2021/11/10 01:31:53;;;;;;;;;;;;;;;21.07;57.08;101332.00;2067493;28;779;-58
2021/11/10 01:32:54;;;;;;;;;;;;;;;21.07;57.14;101337.38;2067455;28;852;-57
2021/11/10 01:33:54;;;;;;;;;;;;;;;21.05;56.32;101328.44;2067509;28;769;-58
2021/11/10 01:34:54;;;;;;;;;;;;;;;21.05;56.26;101339.22;2067434;28;1017;-58
2021/11/10 01:35:54;;;;;;;;;;;;;;;21.05;56.73;101338.31;2067450;28;1037;-58
2021/11/10 01:36:54;;;;;;;;;;;;;;;21.05;56.85;101332.94;2067190;28;1941;-59
2021/11/10 01:37:55;;;;;;;;;;;;;;;21.03;56.59;101333.88;2069990;28;1221;-59
2021/11/10 01:38:55;;;;;;;;;;;;;;;21.06;56.69;101330.22;2075530;28;1723;-59
2021/11/10 01:39:56;;;;;;;;;;;;;;;21.02;56.71;101325.84;2075532;28;784;-58
2021/11/10 01:40:56;;;;;;;;;;;;;;;21.04;57.35;101321.28;2075491;28;831;-58
2021/11/10 01:42:02;;;;;;;;;;;;;;;21.05;57.00;101322.16;2075445;28;981;-58
2021/11/10 01:43:15;;;;;;;;;;;;;;;21.03;56.91;101327.59;2075311;28;835;-58
2021/11/10 01:44:20;;;;;;;;;;;;;;;21.03;57.03;101324.91;2075548;28;847;-57
2021/11/10 01:45:21;;;;;;;;;;;;;;;21.04;57.09;101318.59;2075449;28;858;-56
2021/11/10 01:46:21;;;;;;;;;;;;;;;21.05;56.48;101322.16;2075426;28;809;-56
2021/11/10 01:47:22;;;;;;;;;;;;;;;21.06;56.65;101315.84;2075358;28;988;-57
2021/11/10 01:48:22;;;;;;;;;;;;;;;21.05;57.23;101308.69;2075475;28;902;-56
2021/11/10 01:49:23;;;;;;;;;;;;;;;21.08;56.34;101317.59;2075365;28;957;-55
2021/11/10 01:50:23;;;;;;;;;;;;;;;21.09;56.32;101313.97;2075459;28;888;-55
2021/11/10 01:51:24;;;;;;;;;;;;;;;21.10;56.17;101314.84;2075399;28;981;-55
2021/11/10 01:52:25;;;;;;;;;;;;;;;21.12;56.52;101310.28;2075391;28;871;-55
2021/11/10 01:53:25;;;;;;;;;;;;;;;21.11;57.17;101308.53;2075284;28;970;-56
2021/11/10 01:54:27;;;;;;;;;;;;;;;21.10;56.69;101307.66;2075475;28;921;-58
2021/11/10 01:55:27;;;;;;;;;;;;;;;21.11;56.09;101300.44;2075136;28;902;-57
2021/11/10 01:56:27;;;;;;;;;;;;;;;21.08;56.93;101306.81;2075173;28;1154;-58
2021/11/10 01:57:29;;;;;;;;;;;;;;;21.08;57.16;101305.91;2074704;28;1962;-57
2021/11/10 01:58:29;;;;;;;;;;;;;;;21.09;56.39;101308.59;2074896;28;1139;-57
2021/11/10 01:59:34;;;;;;;;;;;;;;;21.09;56.49;101305.00;2074723;28;800;-57
2021/11/10 02:00:36;;;;;;;;;;;;;;;21.07;57.28;101306.84;2074807;28;806;-57
2021/11/10 02:01:43;;;;;;;;;;;;;;;21.03;57.32;101304.25;2074607;28;1975;-57
2021/11/10 02:02:43;;;;;;;;;;;;;;;21.03;56.82;101308.75;2075398;28;807;-58
2021/11/10 02:03:44;;;;;;;;;;;;;;;21.05;57.54;101309.59;2075081;28;898;-57
2021/11/10 02:04:44;;;;;;;;;;;;;;;21.03;57.02;101314.16;2075369;28;831;-57
2021/11/10 02:05:45;;;;;;;;;;;;;;;21.04;56.99;101310.53;2075377;28;819;-57
2021/11/10 02:06:45;;;;;;;;;;;;;;;21.04;56.67;101310.53;2075232;28;893;-57
2021/11/10 02:07:45;;;;;;;;;;;;;;;21.03;57.79;101314.16;2075265;28;997;-58
2021/11/10 02:08:45;;;;;;;;;;;;;;;21.04;56.89;101307.84;2075296;28;1048;-57
2021/11/10 02:09:47;;;;;;;;;;;;;;;21.02;57.44;101307.84;2075102;28;815;-58
2021/11/10 02:10:47;;;;;;;;;;;;;;;21.00;57.30;101309.72;2075350;28;1397;-58
2021/11/10 02:11:47;;;;;;;;;;;;;;;21.01;56.66;101305.22;2074760;28;1020;-57
2021/11/10 02:12:48;;;;;;;;;;;;;;;21.02;56.72;101307.00;2074887;28;793;-57
2021/11/10 02:13:48;;;;;;;;;;;;;;;21.00;57.16;101298.94;2075249;28;875;-58
2021/11/10 02:14:48;;;;;;;;;;;;;;;21.01;57.26;101302.53;2075283;28;780;-57
2021/11/10 02:15:49;;;;;;;;;;;;;;;20.99;57.60;101297.16;2075229;28;772;-58
2021/11/10 02:16:49;;;;;;;;;;;;;;;21.00;57.36;101314.22;2075175;28;1899;-57
2021/11/10 02:17:53;;;;;;;;;;;;;;;21.01;56.75;101311.47;2075151;28;1473;-57
2021/11/10 02:18:54;;;;;;;;;;;;;;;21.00;57.35;101304.31;2075230;28;980;-57
2021/11/10 02:19:55;;;;;;;;;;;;;;;21.00;56.86;101304.31;2074553;28;1307;-57
2021/11/10 02:20:55;;;;;;;;;;;;;;;20.99;58.04;101307.06;2074674;28;907;-57
2021/11/10 02:21:57;;;;;;;;;;;;;;;20.99;57.34;101293.59;2075226;28;898;-58
2021/11/10 02:22:57;;;;;;;;;;;;;;;21.00;56.71;101301.63;2075022;28;847;-57
2021/11/10 02:23:59;;;;;;;;;;;;;;;20.99;56.92;101293.59;2075097;28;847;-57
2021/11/10 02:25:01;;;;;;;;;;;;;;;20.98;57.43;101295.41;2075260;28;859;-58
2021/11/10 02:26:04;;;;;;;;;;;;;;;20.99;57.08;101290.91;2075224;28;842;-58
2021/11/10 02:27:14;;;;;;;;;;;;;;;20.99;57.24;101297.16;2075253;28;791;-57
2021/11/10 02:28:14;;;;;;;;;;;;;;;21.01;57.28;101298.00;2075226;28;710;-57
2021/11/10 02:29:16;;;;;;;;;;;;;;;21.00;57.54;101298.06;2075213;28;827;-57
2021/11/10 02:30:17;;;;;;;;;;;;;;;21.02;57.56;101304.28;2075019;28;784;-57
2021/11/10 02:31:18;;;;;;;;;;;;;;;21.01;56.56;101300.69;2075090;28;989;-57
2021/11/10 02:32:18;;;;;;;;;;;;;;;20.97;57.14;101299.03;2075251;28;863;-57
2021/11/10 02:33:26;;;;;;;;;;;;;;;20.98;57.28;101297.22;2075135;28;1356;-58
2021/11/10 02:34:26;;;;;;;;;;;;;;;20.99;57.22;101299.84;2075205;28;807;-57
2021/11/10 02:35:27;;;;;;;;;;;;;;;21.00;57.29;101292.69;2075127;28;891;-58
2021/11/10 02:36:27;;;;;;;;;;;;;;;21.00;56.95;101288.16;2074883;28;870;-57
2021/11/10 02:37:28;;;;;;;;;;;;;;;20.98;56.53;101290.00;2075004;28;1961;-57
2021/11/10 02:38:28;;;;;;;;;;;;;;;20.98;57.09;101286.44;2075059;28;1534;-57
2021/11/10 02:39:30;;;;;;;;;;;;;;;20.99;57.47;101285.53;2075063;28;910;-57
2021/11/10 02:40:31;;;;;;;;;;;;;;;20.99;56.81;101286.41;2075127;28;807;-57
2021/11/10 02:41:31;;;;;;;;;;;;;;;20.98;57.18;101292.72;2074814;28;865;-58
2021/11/10 02:42:31;;;;;;;;;;;;;;;20.98;56.63;101287.31;2075086;28;903;-57
2021/11/10 02:43:32;;;;;;;;;;;;;;;20.99;56.81;101289.09;2075028;28;970;-58
2021/11/10 02:44:32;;;;;;;;;;;;;;;21.00;57.65;101295.38;2074967;28;863;-57
2021/11/10 02:45:32;;;;;;;;;;;;;;;20.99;57.01;101288.22;2075059;28;887;-57
2021/11/10 02:46:33;;;;;;;;;;;;;;;21.00;56.83;101290.00;2075083;28;808;-57
2021/11/10 02:47:34;;;;;;;;;;;;;;;20.97;57.08;101288.25;2074899;28;875;-57
2021/11/10 02:48:34;;;;;;;;;;;;;;;20.98;57.02;101295.41;2075088;28;977;-57
2021/11/10 02:49:35;;;;;;;;;;;;;;;20.96;56.71;101291.00;2074978;28;1021;-57
2021/11/10 02:50:35;;;;;;;;;;;;;;;20.96;57.32;101280.22;2074781;28;827;-57
2021/11/10 02:51:35;;;;;;;;;;;;;;;20.98;56.55;101281.06;2075001;28;856;-58
2021/11/10 02:52:36;;;;;;;;;;;;;;;20.97;57.13;101285.56;2075081;28;965;-58
2021/11/10 02:53:36;;;;;;;;;;;;;;;20.97;57.09;101280.16;2075035;28;977;-57
2021/11/10 02:54:39;;;;;;;;;;;;;;;20.97;57.51;101277.47;2075018;28;839;-58
2021/11/10 02:55:39;;;;;;;;;;;;;;;20.98;56.32;101273.84;2074966;28;771;-58
2021/11/10 02:56:40;;;;;;;;;;;;;;;20.98;57.16;101279.25;2074908;28;1059;-57
2021/11/10 02:57:40;;;;;;;;;;;;;;;20.98;57.13;101273.00;2074963;28;1906;-57
2021/11/10 02:58:40;;;;;;;;;;;;;;;20.96;56.46;101280.22;2074836;28;1024;-58
2021/11/10 02:59:40;;;;;;;;;;;;;;;20.95;56.86;101275.75;2074946;28;966;-59
2021/11/10 03:00:40;;;;;;;;;;;;;;;20.97;57.61;101271.22;2074965;28;843;-59
2021/11/10 03:01:41;;;;;;;;;;;;;;;20.96;56.30;101269.44;2074784;28;985;-57
2021/11/10 03:02:41;;;;;;;;;;;;;;;20.97;57.24;101271.22;2074952;28;1040;-58
2021/11/10 03:03:41;;;;;;;;;;;;;;;20.96;57.42;101272.16;2074957;28;831;-57
2021/11/10 03:04:45;;;;;;;;;;;;;;;20.95;56.63;101267.69;2074605;28;902;-58
2021/11/10 03:05:47;;;;;;;;;;;;;;;20.90;57.64;101275.91;2075001;28;843;-57
2021/11/10 03:06:47;;;;;;;;;;;;;;;20.92;56.80;101274.03;2075019;28;820;-58
2021/11/10 03:07:47;;;;;;;;;;;;;;;20.94;56.82;101277.56;2074969;28;1118;-57
2021/11/10 03:08:48;;;;;;;;;;;;;;;20.92;57.14;101268.63;2074983;28;776;-58
2021/11/10 03:09:48;;;;;;;;;;;;;;;20.92;57.28;101271.34;2074690;28;761;-58
2021/11/10 03:10:49;;;;;;;;;;;;;;;20.92;57.18;101263.25;2074906;28;1180;-57
2021/11/10 03:11:51;;;;;;;;;;;;;;;20.94;56.70;101265.91;2074973;28;1098;-57
2021/11/10 03:12:51;;;;;;;;;;;;;;;20.96;56.79;101269.44;2074959;28;771;-58
2021/11/10 03:13:51;;;;;;;;;;;;;;;20.95;56.71;101267.69;2074930;28;852;-57
2021/11/10 03:14:52;;;;;;;;;;;;;;;20.94;57.02;101265.91;2074911;28;859;-58
2021/11/10 03:15:52;;;;;;;;;;;;;;;20.95;57.28;101267.69;2074709;28;937;-57
2021/11/10 03:16:53;;;;;;;;;;;;;;;20.95;57.27;101271.25;2074843;28;2316;-58
2021/11/10 03:17:53;;;;;;;;;;;;;;;20.95;57.16;101259.59;2075006;28;748;-57
2021/11/10 03:18:53;;;;;;;;;;;;;;;20.95;56.86;101262.31;2074948;28;1053;-57
2021/11/10 03:19:53;;;;;;;;;;;;;;;20.97;56.95;101265.84;2074847;28;978;-58
2021/11/10 03:20:53;;;;;;;;;;;;;;;20.98;57.10;101259.53;2074772;28;812;-57
2021/11/10 03:21:54;;;;;;;;;;;;;;;20.97;56.72;101260.44;2074904;28;973;-57
2021/11/10 03:22:54;;;;;;;;;;;;;;;20.97;57.16;101263.13;2074874;28;997;-58
2021/11/10 03:23:54;;;;;;;;;;;;;;;20.97;56.68;101260.44;2075373;28;774;-58
2021/11/10 03:24:54;;;;;;;;;;;;;;;20.96;56.33;101264.94;2076529;28;998;-57
2021/11/10 03:25:55;;;;;;;;;;;;;;;20.94;57.07;101261.41;2076332;28;828;-58
2021/11/10 03:26:55;;;;;;;;;;;;;;;20.95;57.38;101257.78;2076274;28;1214;-58
2021/11/10 03:27:55;;;;;;;;;;;;;;;20.95;56.94;101260.47;2076629;28;808;-57
2021/11/10 03:28:56;;;;;;;;;;;;;;;20.95;56.62;101256.91;2076304;28;796;-57
2021/11/10 03:29:56;;;;;;;;;;;;;;;20.95;57.10;101254.22;2076376;28;1065;-57
2021/11/10 03:30:56;;;;;;;;;;;;;;;20.96;57.24;101256.84;2076410;28;1005;-57
2021/11/10 03:31:56;;;;;;;;;;;;;;;20.98;56.51;101256.81;2076457;28;685;-58
2021/11/10 03:32:56;;;;;;;;;;;;;;;20.95;56.92;101251.53;2076462;28;922;-57
2021/11/10 03:33:57;;;;;;;;;;;;;;;20.96;56.18;101251.47;2076496;28;1017;-57
2021/11/10 03:34:57;;;;;;;;;;;;;;;20.97;56.34;101252.38;2076269;28;768;-57
2021/11/10 03:35:57;;;;;;;;;;;;;;;20.96;56.17;101251.47;2076484;28;998;-57
2021/11/10 03:36:57;;;;;;;;;;;;;;;20.97;56.28;101249.69;2076359;28;1974;-57
2021/11/10 03:37:57;;;;;;;;;;;;;;;20.98;56.80;101248.75;2073348;28;1475;-57
2021/11/10 03:38:58;;;;;;;;;;;;;;;20.97;57.44;101244.28;2068313;28;808;-57
2021/11/10 03:39:59;;;;;;;;;;;;;;;20.96;57.15;101245.22;2068357;28;788;-58
2021/11/10 03:40:59;;;;;;;;;;;;;;;20.95;56.78;101246.13;2068370;28;819;-58
2021/11/10 03:41:59;;;;;;;;;;;;;;;20.95;56.89;101247.00;2068362;28;839;-58
2021/11/10 03:43:00;;;;;;;;;;;;;;;20.98;56.55;101246.91;2068218;28;1025;-59
2021/11/10 03:44:00;;;;;;;;;;;;;;;20.97;56.38;101247.84;2068258;28;978;-59
2021/11/10 03:45:00;;;;;;;;;;;;;;;20.96;56.56;101243.38;2068234;28;966;-57
2021/11/10 03:46:01;;;;;;;;;;;;;;;20.97;56.47;101244.28;2068241;28;935;-58
2021/11/10 03:47:02;;;;;;;;;;;;;;;20.98;56.50;101246.91;2068285;28;1023;-57
2021/11/10 03:48:02;;;;;;;;;;;;;;;20.97;56.71;101244.28;2067865;28;1013;-58
2021/11/10 03:49:03;;;;;;;;;;;;;;;20.98;57.31;101246.06;2068310;28;855;-58
2021/11/10 03:50:04;;;;;;;;;;;;;;;20.97;56.88;101244.28;2068264;28;860;-57
2021/11/10 03:51:04;;;;;;;;;;;;;;;20.98;56.56;101235.28;2068264;28;1023;-58
2021/11/10 03:52:04;;;;;;;;;;;;;;;20.99;56.49;101202.03;2068229;28;875;-57
2021/11/10 03:53:05;;;;;;;;;;;;;;;20.98;56.93;101209.22;2068215;28;779;-57
2021/11/10 03:54:05;;;;;;;;;;;;;;;21.00;57.05;101206.50;2067939;28;867;-58
2021/11/10 03:55:06;;;;;;;;;;;;;;;20.98;56.48;101200.28;2068260;28;862;-57
2021/11/10 03:56:06;;;;;;;;;;;;;;;20.98;56.24;101198.44;2068003;28;1233;-58
2021/11/10 03:57:06;;;;;;;;;;;;;;;20.99;56.69;101184.06;2068007;28;1914;-57
2021/11/10 03:58:08;;;;;;;;;;;;;;;21.00;56.83;101188.50;2067551;28;1453;-58
2021/11/10 03:59:08;;;;;;;;;;;;;;;21.01;56.31;101267.50;2067594;28;945;-57
2021/11/10 04:00:09;;;;;;;;;;;;;;;20.98;56.84;101263.09;2068013;28;1013;-58
2021/11/10 04:01:09;;;;;;;;;;;;;;;20.96;56.80;101248.78;2068159;28;764;-57
2021/11/10 04:02:10;;;;;;;;;;;;;;;20.96;56.65;101240.69;2068132;28;803;-58
2021/11/10 04:03:10;;;;;;;;;;;;;;;20.96;57.15;101242.53;2068239;28;1056;-57
2021/11/10 04:04:11;;;;;;;;;;;;;;;20.96;56.10;101245.22;2068174;28;780;-58
2021/11/10 04:05:11;;;;;;;;;;;;;;;20.98;56.43;101246.06;2068119;28;838;-58
2021/11/10 04:06:11;;;;;;;;;;;;;;;20.95;56.56;101246.13;2068108;28;780;-57
2021/11/10 04:07:11;;;;;;;;;;;;;;;20.96;56.22;101247.91;2068063;28;676;-57
2021/11/10 04:08:12;;;;;;;;;;;;;;;20.94;57.05;101242.53;2067929;28;1112;-58
2021/11/10 04:09:12;;;;;;;;;;;;;;;20.97;57.11;101245.16;2068131;28;792;-57
2021/11/10 04:10:12;;;;;;;;;;;;;;;20.95;57.23;101240.75;2068100;28;887;-57
2021/11/10 04:11:12;;;;;;;;;;;;;;;20.96;57.08;101234.44;2068030;28;966;-58
2021/11/10 04:12:12;;;;;;;;;;;;;;;20.95;56.42;101222.78;2068097;28;776;-58
2021/11/10 04:13:12;;;;;;;;;;;;;;;20.94;57.06;101206.66;2067702;28;860;-57
2021/11/10 04:14:13;;;;;;;;;;;;;;;20.92;56.74;101220.16;2068029;28;1036;-58
2021/11/10 04:15:13;;;;;;;;;;;;;;;20.91;56.99;101220.22;2068107;28;880;-57
2021/11/10 04:16:14;;;;;;;;;;;;;;;20.91;57.80;101209.44;2068110;28;910;-57
2021/11/10 04:17:15;;;;;;;;;;;;;;;20.90;57.13;101211.28;2067971;28;1955;-57
2021/11/10 04:18:15;;;;;;;;;;;;;;;20.88;57.30;101211.31;2068044;28;840;-57
2021/11/10 04:19:15;;;;;;;;;;;;;;;20.88;57.18;101219.38;2067975;28;772;-57
2021/11/10 04:20:15;;;;;;;;;;;;;;;20.91;57.25;101213.00;2067984;28;1041;-58
2021/11/10 04:21:16;;;;;;;;;;;;;;;20.93;57.64;101215.69;2067935;28;982;-57
2021/11/10 04:22:20;;;;;;;;;;;;;;;20.93;57.72;101210.28;2068057;28;792;-58
2021/11/10 04:23:20;;;;;;;;;;;;;;;20.90;56.92;101205.88;2067769;28;850;-58
2021/11/10 04:24:20;;;;;;;;;;;;;;;20.93;57.03;101204.91;2067871;28;974;-57
2021/11/10 04:25:20;;;;;;;;;;;;;;;20.93;56.76;101202.22;2067918;28;780;-58
2021/11/10 04:26:21;;;;;;;;;;;;;;;20.95;56.51;101195.84;2067969;28;812;-58
2021/11/10 04:27:22;;;;;;;;;;;;;;;20.91;57.41;101207.63;2067999;28;1108;-58
2021/11/10 04:28:22;;;;;;;;;;;;;;;20.93;57.19;101208.47;2067978;28;784;-57
2021/11/10 04:29:23;;;;;;;;;;;;;;;20.91;56.42;101207.63;2067768;28;1238;-57
2021/11/10 04:30:23;;;;;;;;;;;;;;;20.91;56.48;101206.75;2067904;28;792;-57
2021/11/10 04:31:24;;;;;;;;;;;;;;;20.90;57.31;101208.59;2067501;28;757;-57
2021/11/10 04:32:24;;;;;;;;;;;;;;;20.89;56.78;101212.22;2067921;28;777;-57
2021/11/10 04:33:24;;;;;;;;;;;;;;;20.88;56.99;101205.91;2067939;28;777;-57
2021/11/10 04:34:25;;;;;;;;;;;;;;;20.86;57.11;101212.28;2067633;28;759;-57
2021/11/10 04:35:25;;;;;;;;;;;;;;;20.90;56.90;101216.66;2067575;28;848;-57
2021/11/10 04:36:29;;;;;;;;;;;;;;;20.90;57.10;101213.06;2067949;28;780;-57
2021/11/10 04:37:29;;;;;;;;;;;;;;;20.90;57.52;101218.47;2067719;28;1890;-57
2021/11/10 04:38:29;;;;;;;;;;;;;;;20.90;57.53;101215.75;2075032;28;1550;-57
2021/11/10 04:39:29;;;;;;;;;;;;;;;20.88;57.71;101214.00;2075197;28;864;-58
2021/11/10 04:40:30;;;;;;;;;;;;;;;20.85;58.07;101208.69;2075379;28;835;-57
2021/11/10 04:41:30;;;;;;;;;;;;;;;20.89;57.89;101212.22;2075911;28;847;-57
2021/11/10 04:42:30;;;;;;;;;;;;;;;20.89;57.20;101206.81;2075892;28;772;-57
2021/11/10 04:43:30;;;;;;;;;;;;;;;20.87;57.18;101203.28;2075910;28;934;-58
2021/11/10 04:44:30;;;;;;;;;;;;;;;20.85;57.59;101203.31;2075931;28;792;-57
2021/11/10 04:45:33;;;;;;;;;;;;;;;20.87;57.18;101204.16;2075816;28;966;-58
2021/11/10 04:46:35;;;;;;;;;;;;;;;20.85;57.39;101205.13;2075936;28;796;-57
2021/11/10 04:47:35;;;;;;;;;;;;;;;20.85;57.88;101202.44;2075704;28;858;-57
2021/11/10 04:48:37;;;;;;;;;;;;;;;20.88;57.36;101205.06;2075889;28;814;-57
2021/11/10 04:49:37;;;;;;;;;;;;;;;20.85;57.21;101200.63;2075823;28;882;-58
2021/11/10 04:50:38;;;;;;;;;;;;;;;20.84;57.44;101203.38;2075602;28;764;-57
2021/11/10 04:51:39;;;;;;;;;;;;;;;20.86;57.53;101205.09;2075820;28;1124;-58
2021/11/10 04:52:39;;;;;;;;;;;;;;;20.82;57.99;101202.53;2075888;28;788;-57
2021/11/10 04:53:42;;;;;;;;;;;;;;;20.85;57.88;101202.44;2075819;28;777;-60
2021/11/10 04:54:43;;;;;;;;;;;;;;;20.85;57.17;101197.06;2075848;28;1116;-57
2021/11/10 04:55:43;;;;;;;;;;;;;;;20.86;57.55;101201.53;2075735;28;823;-57
2021/11/10 04:56:43;;;;;;;;;;;;;;;20.85;57.62;101206.00;2075447;28;1181;-57
2021/11/10 04:57:43;;;;;;;;;;;;;;;20.86;56.81;101204.22;2075677;28;1935;-58
2021/11/10 04:58:43;;;;;;;;;;;;;;;20.90;56.94;101202.31;2075808;28;1029;-57
2021/11/10 04:59:44;;;;;;;;;;;;;;;20.87;57.45;101195.22;2075791;28;1078;-58
2021/11/10 05:00:46;;;;;;;;;;;;;;;20.83;57.66;101202.47;2075747;28;863;-57
2021/11/10 05:03:05;;;;;;;;;;;;;;;20.84;57.60;101192.59;2075824;28;744;-57
2021/11/10 05:04:05;;;;;;;;;;;;;;;20.85;57.53;101195.25;2075634;28;723;-57
2021/11/10 05:05:05;;;;;;;;;;;;;;;21.45;55.80;101192.53;2075576;28;831;-57
2021/11/10 05:06:06;;;;;;;;;;;;;;;21.77;54.29;101189.78;2075726;28;980;-58
2021/11/10 05:07:06;;;;;;;;;;;;;;;21.90;54.30;101177.66;2075786;28;840;-58
2021/11/10 05:08:06;;;;;;;;;;;;;;;22.02;54.24;101183.56;2075788;28;1026;-57
2021/11/10 05:09:06;;;;;;;;;;;;;;;22.12;54.09;101176.91;2075737;28;855;-58
2021/11/10 05:10:07;;;;;;;;;;;;;;;22.19;53.12;101183.84;2075462;28;977;-58
2021/11/10 05:11:07;;;;;;;;;;;;;;;22.27;53.52;101183.59;2075726;28;1247;-58
2021/11/10 05:12:07;;;;;;;;;;;;;;;22.28;53.46;101188.06;2075596;28;824;-58
2021/11/10 05:13:08;;;;;;;;;;;;;;;22.34;53.52;101182.44;2075658;28;986;-59
2021/11/10 05:14:08;;;;;;;;;;;;;;;22.42;52.58;101181.25;2075692;28;966;-59
2021/11/10 05:15:09;;;;;;;;;;;;;;;22.46;52.78;101169.44;2075660;28;832;-59
2021/11/10 05:16:09;;;;;;;;;;;;;;;22.50;52.20;101182.81;2075677;28;870;-59
2021/11/10 05:17:09;;;;;;;;;;;;;;;22.54;52.22;101178.16;2075623;28;1894;-58
2021/11/10 05:18:09;;;;;;;;;;;;;;;22.55;52.86;101179.91;2075522;28;856;-58
2021/11/10 05:19:10;;;;;;;;;;;;;;;22.60;52.45;101177.94;2075608;28;970;-57
2021/11/10 05:20:10;;;;;;;;;;;;;;;22.64;52.17;101185.00;2075483;28;970;-56